Time;durP1;ratioP1;P1;durP2;ratioP2;P2;SDS_P1;SDS_P2;PMS_P1;PMS_P2;Temp;Humidity;BMP_temperature;BMP_pressure;BME280_temperature;BME280_humidity;BME280_pressure;Samples;Min_cycle;Max_cycle;Signal;HPM_P1;HPM_P2
2022/08/12 00:44:21;;;;;;;2.17;1.30;;;21.20;81.90;;;;;;5010210;28;20042;-34
2022/08/12 00:46:50;;;;;;;3.10;1.65;;;21.20;82.50;;;;;;5009908;28;20046;-35
2022/08/12 00:49:17;;;;;;;3.33;1.55;;;21.10;82.80;;;;;;5009028;28;20499;-34
2022/08/12 00:54:30;;;;;;;4.47;1.95;;;21.00;83.40;;;;;;5008603;28;20129;-34
2022/08/12 00:56:58;;;;;;;8.15;1.85;;;21.00;83.60;;;;;;5010447;28;20488;-34
2022/08/12 00:59:24;;;;;;;3.60;1.75;;;20.90;83.90;;;;;;5008496;28;20057;-34
2022/08/12 01:01:53;;;;;;;3.55;1.50;;;20.90;84.10;;;;;;5009909;28;20057;-34
2022/08/12 01:12:40;;;;;;;3.55;1.30;;;20.80;85.10;;;;;;5002452;28;20166;-34
2022/08/12 01:15:06;;;;;;;2.88;1.63;;;20.70;85.60;;;;;;5006957;28;20115;-34
2022/08/12 01:17:33;;;;;;;2.72;1.30;;;20.70;85.80;;;;;;5007605;28;20045;-35
2022/08/12 01:20:05;;;;;;;3.78;1.60;;;20.60;85.90;;;;;;5009944;28;20095;-34
2022/08/12 01:22:44;;;;;;;4.47;1.42;;;20.60;86.40;;;;;;5006031;28;20038;-34
2022/08/12 01:25:17;;;;;;;3.97;1.70;;;20.60;87.20;;;;;;5004482;28;20045;-34
2022/08/12 01:27:45;;;;;;;2.67;1.70;;;20.50;86.50;;;;;;5006421;28;20125;-34
2022/08/12 01:30:13;;;;;;;3.70;1.42;;;20.50;86.90;;;;;;5007692;28;20511;-35
2022/08/12 01:32:40;;;;;;;2.17;1.70;;;20.50;87.30;;;;;;5007383;28;20056;-34
2022/08/12 01:35:11;;;;;;;4.05;2.10;;;20.50;87.30;;;;;;5008269;28;20042;-35
2022/08/12 01:38:01;;;;;;;3.00;1.73;;;20.40;87.80;;;;;;5006822;28;20050;-35
2022/08/12 01:40:30;;;;;;;3.05;2.00;;;20.40;89.10;;;;;;5005986;28;20545;-35
2022/08/12 01:43:20;;;;;;;2.38;1.55;;;20.30;88.10;;;;;;4990083;28;20510;-34
2022/08/12 01:46:02;;;;;;;2.17;1.52;;;20.30;89.40;;;;;;4987740;28;20041;-35
2022/08/12 01:48:56;;;;;;;3.97;1.88;;;20.30;89.40;;;;;;5007670;28;20081;-35
2022/08/12 01:51:41;;;;;;;2.80;1.98;;;20.30;88.70;;;;;;5002745;28;20046;-34
2022/08/12 01:54:12;;;;;;;3.05;1.60;;;20.20;89.50;;;;;;5000102;28;20124;-34
2022/08/12 01:56:42;;;;;;;6.45;1.88;;;20.20;89.40;;;;;;5003754;28;20034;-35
2022/08/12 02:01:57;;;;;;;2.47;1.15;;;20.10;89.90;;;;;;5004918;28;20044;-34
2022/08/12 02:11:17;;;;;;;3.10;2.03;;;20.00;90.40;;;;;;5006131;28;20050;-35
2022/08/12 02:14:09;;;;;;;2.85;1.77;;;20.00;90.70;;;;;;5004879;28;20069;-36
2022/08/12 02:16:44;;;;;;;6.13;2.03;;;20.00;91.00;;;;;;5007788;28;20065;-35
2022/08/12 02:19:15;;;;;;;3.13;1.52;;;19.90;90.70;;;;;;5007754;28;20041;-35
2022/08/12 02:21:50;;;;;;;2.63;1.73;;;19.90;90.60;;;;;;5003961;28;20045;-35
2022/08/12 02:24:19;;;;;;;2.65;1.50;;;19.90;91.00;;;;;;5001470;28;20486;-34
2022/08/12 02:26:49;;;;;;;4.57;2.05;;;19.80;90.90;;;;;;5005980;28;20069;-35
2022/08/12 02:29:15;;;;;;;4.45;1.98;;;19.80;91.00;;;;;;4991507;28;20046;-37
2022/08/12 02:31:44;;;;;;;3.88;1.90;;;19.80;91.20;;;;;;5006406;28;20037;-34
2022/08/12 02:34:11;;;;;;;5.65;1.67;;;19.80;91.40;;;;;;5007481;28;20127;-35
2022/08/12 02:36:39;;;;;;;4.00;1.70;;;19.70;91.40;;;;;;4990565;28;20045;-35
2022/08/12 02:39:07;;;;;;;4.70;1.65;;;19.70;91.50;;;;;;5006842;28;20040;-36
2022/08/12 02:41:35;;;;;;;2.40;1.45;;;19.60;91.60;;;;;;5004502;28;20076;-36
2022/08/12 02:44:08;;;;;;;10.30;2.15;;;19.60;91.60;;;;;;5010642;28;20026;-35
2022/08/12 02:46:35;;;;;;;5.03;1.95;;;19.60;91.90;;;;;;5010471;28;20042;-35
2022/08/12 02:49:08;;;;;;;2.70;1.95;;;19.60;91.90;;;;;;5008461;28;20057;-35
2022/08/12 02:51:39;;;;;;;3.67;1.80;;;19.50;92.00;;;;;;5004132;28;20079;-35
2022/08/12 02:54:06;;;;;;;3.63;1.80;;;19.50;92.20;;;;;;5007800;28;20103;-35
2022/08/12 02:56:39;;;;;;;5.47;2.00;;;19.40;92.30;;;;;;5008867;28;20173;-35
2022/08/12 02:59:10;;;;;;;5.45;2.13;;;19.40;92.50;;;;;;5007661;28;20546;-36
2022/08/12 03:01:42;;;;;;;3.57;2.03;;;19.40;92.50;;;;;;5009678;28;20192;-34
2022/08/12 03:04:16;;;;;;;4.05;2.10;;;19.30;92.70;;;;;;5009387;28;20033;-36
2022/08/12 03:07:05;;;;;;;4.10;2.00;;;19.30;93.00;;;;;;5009237;28;20038;-35
2022/08/12 03:09:34;;;;;;;4.07;1.73;;;19.30;93.30;;;;;;4975862;28;20104;-35
2022/08/12 03:12:08;;;;;;;2.70;1.65;;;19.30;93.00;;;;;;5006449;28;20078;-36
2022/08/12 03:14:34;;;;;;;3.75;1.95;;;19.20;93.10;;;;;;5011553;28;20427;-35
2022/08/12 03:17:12;;;;;;;3.50;1.75;;;19.20;93.10;;;;;;5010659;28;20080;-34
2022/08/12 03:19:38;;;;;;;4.03;2.13;;;19.20;93.50;;;;;;5008728;28;20702;-34
2022/08/12 03:22:13;;;;;;;2.60;1.75;;;19.20;93.40;;;;;;5010132;28;20033;-33
2022/08/12 03:24:43;;;;;;;3.40;2.05;;;19.10;93.50;;;;;;5006209;28;20045;-34
2022/08/12 03:27:12;;;;;;;5.70;1.60;;;19.10;93.70;;;;;;5008115;28;20049;-33
2022/08/12 03:29:38;;;;;;;2.92;2.00;;;19.10;93.70;;;;;;5009769;28;20410;-40
2022/08/12 03:32:05;;;;;;;3.22;2.00;;;19.00;93.70;;;;;;5005975;28;20119;-34
2022/08/12 03:34:35;;;;;;;2.90;2.15;;;19.10;93.70;;;;;;5010025;28;20042;-35
2022/08/12 03:37:06;;;;;;;4.45;2.15;;;19.00;94.00;;;;;;4999351;28;20046;-34
2022/08/12 03:42:09;;;;;;;2.95;2.13;;;19.00;94.20;;;;;;5008979;28;20050;-33
2022/08/12 04:01:51;;;;;;;2.35;1.40;;;18.60;95.40;;;;;;5004548;28;20057;-34
2022/08/12 04:04:21;;;;;;;3.80;2.05;;;18.60;95.40;;;;;;5014728;28;20033;-34
2022/08/12 04:06:47;;;;;;;3.35;2.17;;;18.60;95.70;;;;;;5005927;28;20085;-34
2022/08/12 04:09:13;;;;;;;3.28;2.33;;;18.60;95.70;;;;;;5009839;28;20552;-38
2022/08/12 04:14:26;;;;;;;3.60;2.50;;;18.50;95.90;;;;;;5005763;28;20057;-34
2022/08/12 04:16:52;;;;;;;5.03;2.42;;;18.50;96.20;;;;;;5008940;28;20044;-34
2022/08/12 04:19:19;;;;;;;3.20;2.15;;;18.50;96.30;;;;;;5007500;28;20558;-35
2022/08/12 04:21:45;;;;;;;4.97;2.65;;;18.40;96.40;;;;;;5005635;28;20394;-35
2022/08/12 04:24:12;;;;;;;5.18;2.13;;;18.40;96.60;;;;;;4990196;28;20037;-34
2022/08/12 04:26:38;;;;;;;3.15;2.10;;;18.40;96.60;;;;;;5008935;28;20042;-34
2022/08/12 04:29:05;;;;;;;4.30;2.40;;;18.40;96.70;;;;;;5006680;28;20491;-35
2022/08/12 04:31:31;;;;;;;2.78;1.90;;;18.40;96.80;;;;;;5009871;28;20076;-34
2022/08/12 04:33:58;;;;;;;2.85;1.95;;;18.40;96.90;;;;;;5006185;28;20042;-34
2022/08/12 04:36:24;;;;;;;3.55;2.35;;;18.40;97.10;;;;;;5005507;28;20037;-35
2022/08/12 04:38:51;;;;;;;4.28;1.92;;;18.30;97.10;;;;;;5007427;28;20412;-34
2022/08/12 04:41:19;;;;;;;6.00;2.60;;;18.30;97.30;;;;;;5004085;28;20041;-34
2022/08/12 04:43:46;;;;;;;5.88;2.50;;;18.30;97.40;;;;;;5010178;28;20045;-35
2022/08/12 04:46:12;;;;;;;4.18;2.40;;;18.30;97.50;;;;;;5006978;28;20529;-34
2022/08/12 04:48:38;;;;;;;5.10;2.50;;;18.30;97.70;;;;;;5004939;28;20042;-36
2022/08/12 04:51:04;;;;;;;4.65;2.40;;;18.30;97.80;;;;;;5005766;28;20479;-37
2022/08/12 04:53:31;;;;;;;4.40;2.80;;;18.30;97.80;;;;;;5007881;28;20087;-34
2022/08/12 04:55:57;;;;;;;3.70;2.55;;;18.30;97.80;;;;;;5006470;28;20169;-34
2022/08/12 04:58:23;;;;;;;4.80;2.60;;;18.30;97.80;;;;;;4991786;28;20034;-34
2022/08/12 05:00:48;;;;;;;5.72;2.40;;;18.40;97.80;;;;;;5006595;28;20543;-34
2022/08/12 05:03:14;;;;;;;3.95;2.08;;;18.40;97.70;;;;;;5005463;28;20133;-36
2022/08/12 05:05:42;;;;;;;5.25;2.60;;;18.40;97.60;;;;;;5005129;28;20077;-33
2022/08/12 05:08:15;;;;;;;4.40;2.83;;;18.50;97.70;;;;;;5007455;28;20042;-34
2022/08/12 05:10:46;;;;;;;3.33;2.28;;;18.50;97.80;;;;;;5007826;28;20038;-35
2022/08/12 05:13:15;;;;;;;4.82;2.08;;;18.50;97.80;;;;;;5006825;28;20042;-34
2022/08/12 05:15:44;;;;;;;5.53;2.90;;;18.50;97.70;;;;;;5006220;28;20066;-34
2022/08/12 05:18:11;;;;;;;3.67;2.15;;;18.60;97.50;;;;;;5007815;28;20491;-34
2022/08/12 05:20:37;;;;;;;3.42;2.42;;;18.60;97.40;;;;;;5007998;28;20041;-34
2022/08/12 05:23:07;;;;;;;4.40;2.78;;;18.60;97.20;;;;;;5008751;28;20037;-34
2022/08/12 05:25:33;;;;;;;4.45;1.80;;;18.70;97.10;;;;;;5007457;28;20038;-34
2022/08/12 05:27:59;;;;;;;4.82;2.42;;;18.70;96.90;;;;;;5008335;28;20391;-34
2022/08/12 05:30:29;;;;;;;4.78;2.42;;;18.80;96.80;;;;;;5007071;28;20540;-34
2022/08/12 05:32:56;;;;;;;4.57;2.78;;;18.80;96.80;;;;;;5005184;28;20033;-33
2022/08/12 05:35:22;;;;;;;4.03;2.20;;;18.90;96.70;;;;;;5008239;28;20168;-33
2022/08/12 05:38:54;;;;;;;3.17;2.13;;;18.90;96.50;;;;;;5003311;28;20124;-34
2022/08/12 05:40:34;;;;;;;4.18;2.20;;;19.00;96.40;;;;;;5005953;28;20049;-34
2022/08/12 05:43:00;;;;;;;5.60;2.28;;;19.10;96.10;;;;;;5001832;28;20343;-35
2022/08/12 05:45:26;;;;;;;4.38;1.90;;;19.10;95.90;;;;;;5004993;28;20529;-34
2022/08/12 05:47:52;;;;;;;3.88;2.33;;;19.20;95.80;;;;;;5003959;28;20030;-33
2022/08/12 05:50:18;;;;;;;4.68;2.20;;;19.30;95.50;;;;;;5003864;28;20037;-34
2022/08/12 05:52:44;;;;;;;4.05;2.40;;;19.40;95.40;;;;;;5006417;28;20045;-34
2022/08/12 05:55:09;;;;;;;7.35;2.42;;;19.50;95.10;;;;;;5008341;28;20491;-33
2022/08/12 05:57:35;;;;;;;4.18;2.10;;;19.60;94.80;;;;;;5004195;28;20046;-34
2022/08/12 06:00:03;;;;;;;7.43;2.70;;;19.60;94.60;;;;;;4983213;28;20120;-34
2022/08/12 06:02:29;;;;;;;3.22;2.00;;;19.70;94.30;;;;;;4985699;28;20081;-33
2022/08/12 06:04:59;;;;;;;4.70;2.17;;;19.80;94.00;;;;;;4985395;28;20502;-33
2022/08/12 06:07:25;;;;;;;3.50;2.28;;;19.90;93.80;;;;;;4986337;28;20050;-34
2022/08/12 06:09:50;;;;;;;3.90;2.75;;;20.00;93.60;;;;;;5004934;28;20046;-34
2022/08/12 06:12:22;;;;;;;7.30;2.55;;;20.00;93.50;;;;;;4987275;28;20034;-34
2022/08/12 06:14:48;;;;;;;5.57;2.50;;;20.10;93.20;;;;;;4991946;28;20046;-34
2022/08/12 06:17:14;;;;;;;4.63;2.30;;;20.20;93.00;;;;;;4984886;28;20474;-34
2022/08/12 06:19:40;;;;;;;3.45;2.20;;;20.20;93.30;;;;;;4985906;28;20038;-34
2022/08/12 06:22:06;;;;;;;4.88;2.40;;;20.30;92.70;;;;;;4986577;28;20077;-34
2022/08/12 06:24:32;;;;;;;4.70;2.45;;;20.40;92.60;;;;;;4985209;28;20038;-35
2022/08/12 06:26:58;;;;;;;6.97;2.50;;;20.40;92.50;;;;;;4983462;28;20042;-33
2022/08/12 06:29:24;;;;;;;6.07;2.40;;;20.50;92.40;;;;;;4987256;28;20121;-33
2022/08/12 06:31:50;;;;;;;6.25;2.60;;;20.60;92.20;;;;;;4982996;28;20141;-34
2022/08/12 06:34:17;;;;;;;6.35;2.92;;;20.70;92.50;;;;;;4982088;28;20429;-35
2022/08/12 06:36:44;;;;;;;3.60;2.40;;;20.70;91.70;;;;;;4985732;28;20046;-35
2022/08/12 06:39:14;;;;;;;8.43;2.90;;;20.80;91.50;;;;;;4982643;28;20041;-34
2022/08/12 06:44:24;;;;;;;3.83;1.98;;;20.90;91.20;;;;;;4985965;28;20039;-34
2022/08/12 06:46:51;;;;;;;6.05;2.55;;;21.00;91.10;;;;;;4989844;28;20041;-34
2022/08/12 06:49:16;;;;;;;3.55;2.00;;;21.00;91.00;;;;;;4989276;28;20136;-34
2022/08/12 06:51:42;;;;;;;3.95;2.50;;;21.10;90.90;;;;;;4987415;28;20101;-34
2022/08/12 06:54:10;;;;;;;5.65;1.83;;;21.20;90.70;;;;;;4988452;28;20575;-34
2022/08/12 06:56:36;;;;;;;2.95;1.60;;;21.20;90.70;;;;;;4988780;28;20122;-34
2022/08/12 06:59:02;;;;;;;5.28;2.20;;;21.30;90.60;;;;;;4989922;28;20503;-37
2022/08/12 07:01:30;;;;;;;3.50;1.90;;;21.40;90.50;;;;;;5006724;28;20050;-34
2022/08/12 07:03:57;;;;;;;4.57;2.33;;;21.50;90.40;;;;;;5008146;28;20631;-35
2022/08/12 07:06:24;;;;;;;7.45;2.40;;;21.60;90.20;;;;;;5007374;28;20057;-33
2022/08/12 07:08:49;;;;;;;4.50;2.20;;;21.60;89.90;;;;;;5002796;28;20087;-34
2022/08/12 07:11:15;;;;;;;5.93;2.17;;;21.70;89.70;;;;;;5005210;28;20899;-34
2022/08/12 07:13:47;;;;;;;3.35;2.25;;;21.80;89.40;;;;;;5007618;28;20037;-33
2022/08/12 07:16:15;;;;;;;4.95;1.80;;;21.80;89.00;;;;;;5007532;28;20045;-34
2022/08/12 07:18:43;;;;;;;3.45;1.77;;;21.90;88.50;;;;;;4990590;28;20053;-34
2022/08/12 07:21:09;;;;;;;6.80;2.47;;;22.00;88.30;;;;;;5007116;28;20038;-33
2022/08/12 07:23:37;;;;;;;6.10;1.95;;;22.10;87.70;;;;;;5008930;28;20041;-34
2022/08/12 07:26:05;;;;;;;4.70;1.98;;;22.10;87.10;;;;;;4990594;28;20045;-34
2022/08/12 07:28:34;;;;;;;2.90;2.00;;;22.20;87.00;;;;;;5008215;28;20125;-35
2022/08/12 07:31:07;;;;;;;4.72;1.67;;;22.30;86.50;;;;;;5009522;28;20046;-35
2022/08/12 07:33:37;;;;;;;5.88;1.70;;;22.40;86.00;;;;;;4992178;28;20128;-36
2022/08/12 07:36:05;;;;;;;3.30;1.35;;;22.50;85.70;;;;;;5009612;28;20038;-35
2022/08/12 07:38:44;;;;;;;3.90;1.67;;;22.60;85.30;;;;;;5010068;28;20137;-34
2022/08/12 07:41:30;;;;;;;9.65;1.50;;;22.80;85.00;;;;;;5010412;28;20052;-35
2022/08/12 07:44:06;;;;;;;6.50;1.55;;;22.90;84.30;;;;;;5005106;28;20061;-35
2022/08/12 07:46:35;;;;;;;3.95;1.70;;;23.00;83.50;;;;;;5011781;28;20117;-35
2022/08/12 07:49:08;;;;;;;3.78;1.60;;;23.10;83.10;;;;;;5010795;28;20065;-36
2022/08/12 07:51:34;;;;;;;2.40;1.50;;;23.20;82.40;;;;;;5010874;28;20041;-35
2022/08/12 07:54:00;;;;;;;5.45;1.83;;;23.30;81.60;;;;;;5010370;28;20033;-37
2022/08/12 07:56:27;;;;;;;5.47;1.58;;;23.40;80.30;;;;;;5009985;28;20041;-37
2022/08/12 07:58:53;;;;;;;3.55;1.55;;;23.50;79.60;;;;;;5011272;28;20038;-36
2022/08/12 08:01:20;;;;;;;3.83;1.50;;;23.70;78.50;;;;;;5005884;28;20034;-36
2022/08/12 08:06:40;;;;;;;4.20;1.60;;;23.90;76.70;;;;;;5010902;28;20417;-36
2022/08/12 08:09:07;;;;;;;3.38;1.60;;;24.10;76.20;;;;;;5010317;28;21100;-35
2022/08/12 08:14:17;;;;;;;4.28;1.70;;;24.40;73.30;;;;;;5007976;28;20046;-33
2022/08/12 08:16:42;;;;;;;3.80;1.33;;;24.50;72.70;;;;;;5010704;28;20369;-33
2022/08/12 08:19:21;;;;;;;3.03;1.20;;;24.60;71.90;;;;;;4993524;28;20037;-33
2022/08/12 08:21:47;;;;;;;3.40;1.40;;;24.80;71.00;;;;;;5008297;28;20114;-33
2022/08/12 08:24:15;;;;;;;5.35;1.30;;;24.90;70.80;;;;;;5008806;28;20117;-33
2022/08/12 08:26:44;;;;;;;6.72;1.65;;;25.00;69.30;;;;;;5010230;28;20124;-35
2022/08/12 08:29:11;;;;;;;7.32;1.70;;;25.20;67.10;;;;;;5009272;28;20034;-36
2022/08/12 08:31:42;;;;;;;3.15;1.50;;;25.20;65.30;;;;;;5011128;28;20033;-35
2022/08/12 08:34:12;;;;;;;4.60;1.50;;;25.40;64.00;;;;;;5007204;28;20523;-34
2022/08/12 08:36:38;;;;;;;2.80;1.60;;;25.50;63.00;;;;;;5009519;28;20038;-35
2022/08/12 08:39:08;;;;;;;3.60;1.38;;;25.60;61.10;;;;;;4989358;28;20044;-34
2022/08/12 08:44:19;;;;;;;3.67;1.52;;;25.80;58.70;;;;;;5008452;28;20042;-35
2022/08/12 08:46:45;;;;;;;2.90;1.67;;;26.00;56.70;;;;;;4992494;28;20083;-34
2022/08/12 08:49:11;;;;;;;4.40;1.85;;;26.00;54.80;;;;;;5008874;28;20175;-34
2022/08/12 08:51:38;;;;;;;4.47;1.40;;;26.10;53.50;;;;;;5002309;28;20069;-34
2022/08/12 08:54:05;;;;;;;4.00;1.25;;;26.20;52.80;;;;;;5009699;28;20042;-34
2022/08/12 08:56:32;;;;;;;2.22;1.48;;;26.30;53.10;;;;;;5010106;28;20456;-35
2022/08/12 08:58:58;;;;;;;2.83;1.60;;;26.50;52.40;;;;;;5009559;28;20044;-34
2022/08/12 09:01:25;;;;;;;3.17;1.52;;;26.60;50.90;;;;;;5008614;28;20041;-35
2022/08/12 09:03:51;;;;;;;4.40;1.48;;;26.70;49.70;;;;;;5008181;28;20029;-35
2022/08/12 09:06:16;;;;;;;4.47;1.60;;;26.80;49.30;;;;;;5007199;28;20033;-41
2022/08/12 09:08:43;;;;;;;3.15;1.58;;;26.90;48.80;;;;;;5010111;28;20067;-34
2022/08/12 09:13:53;;;;;;;1.95;1.33;;;27.20;47.70;;;;;;5007869;28;20057;-34
2022/08/12 09:16:19;;;;;;;3.53;1.60;;;27.30;46.80;;;;;;5009073;28;20046;-35
2022/08/12 09:18:46;;;;;;;5.93;1.60;;;27.40;46.30;;;;;;5009329;28;20541;-34
2022/08/12 09:21:12;;;;;;;4.25;1.52;;;27.50;46.40;;;;;;5008805;28;20082;-34
2022/08/12 09:23:39;;;;;;;2.80;1.60;;;27.70;45.50;;;;;;5006292;28;20550;-34
2022/08/12 09:26:08;;;;;;;3.83;1.50;;;27.80;44.70;;;;;;5009262;28;20070;-37
2022/08/12 09:28:34;;;;;;;7.43;1.70;;;27.80;44.10;;;;;;5009590;28;20496;-34
2022/08/12 09:31:00;;;;;;;6.57;1.70;;;27.90;44.10;;;;;;5008641;28;20095;-35
2022/08/12 09:33:32;;;;;;;2.25;1.40;;;28.00;43.80;;;;;;5009869;28;20038;-34
2022/08/12 09:36:04;;;;;;;4.90;1.60;;;28.10;43.20;;;;;;4990789;28;20479;-34
2022/08/12 09:38:30;;;;;;;;;;;28.20;43.10;;;;;;5010087;28;20125;-37
2022/08/12 09:40:56;;;;;;;2.47;1.63;;;28.30;43.20;;;;;;5009687;28;20004;-34
2022/08/12 09:46:07;;;;;;;3.55;1.52;;;28.60;42.40;;;;;;5006147;28;20495;-34
2022/08/12 09:48:33;;;;;;;2.58;1.60;;;28.70;41.70;;;;;;5008932;28;20046;-33
2022/08/12 09:50:59;;;;;;;5.05;1.67;;;28.80;41.50;;;;;;5009218;28;20041;-34
2022/08/12 09:53:26;;;;;;;5.10;1.42;;;28.90;41.10;;;;;;4991241;28;20033;-34
2022/08/12 09:55:54;;;;;;;3.53;1.67;;;29.00;40.60;;;;;;4991520;28;20046;-35
2022/08/12 09:58:28;;;;;;;5.43;1.50;;;29.10;40.10;;;;;;5007500;28;20442;-34
2022/08/12 10:01:05;;;;;;;3.42;1.45;;;29.30;39.90;;;;;;4990810;28;20415;-34
2022/08/12 10:03:35;;;;;;;2.65;1.58;;;29.40;39.40;;;;;;5007709;28;20050;-34
2022/08/12 10:06:05;;;;;;;3.05;1.75;;;29.50;38.70;;;;;;5008009;28;20624;-34
2022/08/12 10:08:32;;;;;;;2.90;1.40;;;29.60;38.40;;;;;;5008617;28;20046;-34
2022/08/12 10:13:47;;;;;;;1.52;1.25;;;29.90;38.50;;;;;;5007624;28;20077;-34
2022/08/12 10:16:18;;;;;;;4.70;1.52;;;30.00;37.80;;;;;;5006241;28;20052;-35
2022/08/12 10:18:53;;;;;;;2.75;1.50;;;30.00;37.10;;;;;;4994451;28;20084;-33
2022/08/12 10:21:29;;;;;;;1.63;1.35;;;30.10;36.30;;;;;;5006630;28;20150;-34
2022/08/12 10:23:56;;;;;;;4.25;1.67;;;30.20;35.60;;;;;;5008832;28;20283;-35
2022/08/12 10:31:53;;;;;;;2.85;1.08;;;30.50;35.50;;;;;;5007484;28;20050;-40
2022/08/12 10:34:23;;;;;;;1.80;1.10;;;30.60;34.90;;;;;;5006416;28;20059;-38
2022/08/12 10:36:54;;;;;;;2.78;1.17;;;30.70;34.70;;;;;;5004193;28;20049;-40
2022/08/12 10:39:21;;;;;;;5.07;1.40;;;30.80;33.70;;;;;;4988585;28;20045;-38
2022/08/12 10:44:32;;;;;;;2.33;1.20;;;30.90;33.10;;;;;;5003651;28;20530;-38
2022/08/12 10:46:58;;;;;;;5.75;1.25;;;31.00;33.20;;;;;;4989704;28;20046;-38
2022/08/12 10:49:26;;;;;;;3.65;1.10;;;31.10;32.50;;;;;;5008810;28;20525;-40
2022/08/12 10:51:53;;;;;;;2.83;1.13;;;31.10;32.10;;;;;;5008956;28;20042;-39
2022/08/12 10:54:20;;;;;;;3.42;1.35;;;31.20;31.70;;;;;;5003966;28;20065;-40
2022/08/12 10:56:48;;;;;;;5.35;1.58;;;31.20;31.40;;;;;;5007575;28;20489;-38
2022/08/12 10:59:14;;;;;;;6.05;1.30;;;31.30;31.10;;;;;;5005955;28;20053;-36
2022/08/12 11:01:44;;;;;;;2.45;1.25;;;31.30;30.90;;;;;;5006885;28;20125;-33
2022/08/12 11:04:12;;;;;;;5.15;1.20;;;31.40;30.90;;;;;;5008550;28;21424;-34
2022/08/12 11:06:46;;;;;;;2.22;1.25;;;31.40;30.80;;;;;;5008274;28;20042;-33
2022/08/12 11:09:16;;;;;;;1.63;1.02;;;31.50;30.60;;;;;;5011598;28;20928;-35
2022/08/12 11:11:43;;;;;;;3.55;1.25;;;31.60;30.50;;;;;;5011822;28;20049;-34
2022/08/12 11:14:09;;;;;;;2.90;1.00;;;31.60;30.60;;;;;;5010689;28;20069;-44
2022/08/12 11:16:36;;;;;;;3.03;1.27;;;31.70;30.90;;;;;;5011191;28;20089;-33
2022/08/12 11:19:01;;;;;;;5.80;1.20;;;31.70;30.40;;;;;;5006723;28;20121;-35
2022/08/12 11:21:27;;;;;;;2.13;1.20;;;31.80;30.50;;;;;;5010759;28;20176;-35
2022/08/12 11:23:53;;;;;;;2.20;1.10;;;31.80;30.60;;;;;;5011522;28;20033;-34
2022/08/12 11:26:18;;;;;;;4.25;1.20;;;31.80;30.50;;;;;;5009172;28;20034;-34
2022/08/12 11:28:44;;;;;;;3.05;1.08;;;32.00;30.30;;;;;;5011574;28;20515;-34
2022/08/12 11:31:09;;;;;;;2.05;0.90;;;32.00;29.80;;;;;;5010911;28;20033;-34
2022/08/12 11:33:35;;;;;;;4.47;1.30;;;32.00;29.40;;;;;;5011200;28;20483;-34
2022/08/12 11:36:06;;;;;;;4.03;1.05;;;32.20;29.90;;;;;;5011364;28;20038;-35
2022/08/12 11:38:32;;;;;;;3.83;1.27;;;32.30;29.80;;;;;;5011250;28;20046;-34
2022/08/12 11:40:58;;;;;;;4.60;1.23;;;32.40;29.80;;;;;;5008612;28;20499;-35
2022/08/12 11:43:24;;;;;;;2.75;1.20;;;32.50;29.70;;;;;;5011262;28;20046;-34
2022/08/12 11:45:50;;;;;;;1.65;1.02;;;32.60;29.50;;;;;;5011741;28;20069;-34
2022/08/12 11:48:15;;;;;;;2.03;0.95;;;32.60;29.40;;;;;;5007919;28;20065;-42
2022/08/12 11:50:44;;;;;;;3.67;1.00;;;32.80;29.30;;;;;;5010472;28;20041;-42
2022/08/12 11:53:10;;;;;;;4.40;1.25;;;32.80;28.60;;;;;;5010481;28;20041;-42
2022/08/12 11:55:35;;;;;;;1.85;0.95;;;32.70;28.20;;;;;;5009494;28;20048;-40
2022/08/12 11:58:01;;;;;;;1.60;1.00;;;32.80;28.20;;;;;;5009984;28;20041;-38
2022/08/12 12:00:27;;;;;;;3.25;1.00;;;32.80;28.00;;;;;;5010678;28;20054;-38
2022/08/12 12:02:53;;;;;;;1.88;0.93;;;32.80;27.80;;;;;;5009815;28;20495;-38
2022/08/12 12:05:19;;;;;;;6.68;1.30;;;32.80;27.60;;;;;;5010276;28;20041;-40
2022/08/12 12:07:45;;;;;;;2.70;1.20;;;32.90;27.60;;;;;;5011066;28;20041;-40
2022/08/12 12:10:13;;;;;;;3.50;1.10;;;32.90;27.70;;;;;;5009552;28;20042;-39
2022/08/12 12:12:39;;;;;;;2.92;1.40;;;33.00;27.70;;;;;;5008363;28;20049;-38
2022/08/12 12:15:06;;;;;;;3.58;1.50;;;33.20;27.60;;;;;;5008897;28;20057;-40
2022/08/12 12:17:35;;;;;;;3.05;1.30;;;33.30;27.10;;;;;;5010709;28;20526;-42
2022/08/12 12:20:04;;;;;;;2.58;1.40;;;33.30;27.10;;;;;;5010473;28;20111;-39
2022/08/12 12:22:30;;;;;;;4.28;1.58;;;33.30;27.30;;;;;;5009906;28;20044;-48
2022/08/12 12:24:55;;;;;;;3.10;1.50;;;33.40;27.40;;;;;;5008921;28;20041;-42
2022/08/12 12:27:21;;;;;;;2.65;1.45;;;33.50;27.40;;;;;;5009763;28;20120;-35
2022/08/12 12:29:47;;;;;;;3.15;1.48;;;33.70;27.40;;;;;;5010015;28;20573;-34
2022/08/12 12:32:13;;;;;;;4.22;1.38;;;33.80;27.10;;;;;;5008826;28;20045;-34
2022/08/12 12:34:39;;;;;;;2.15;1.30;;;33.90;27.20;;;;;;5009211;28;20042;-34
2022/08/12 12:37:05;;;;;;;3.30;1.70;;;33.90;27.10;;;;;;5010613;28;20406;-35
2022/08/12 12:39:30;;;;;;;2.47;2.13;;;34.00;26.70;;;;;;4995684;28;20230;-35
2022/08/12 12:41:56;;;;;;;5.38;2.15;;;34.10;26.50;;;;;;5007856;28;20049;-35
2022/08/12 12:44:22;;;;;;;4.78;2.28;;;34.10;26.30;;;;;;5007417;28;20105;-35
2022/08/12 12:46:47;;;;;;;4.60;1.88;;;34.00;26.50;;;;;;5007070;28;20406;-35
2022/08/12 12:49:13;;;;;;;4.43;1.80;;;34.00;26.80;;;;;;5008768;28;20418;-37
2022/08/12 12:51:39;;;;;;;5.45;1.70;;;34.20;26.90;;;;;;5008104;28;20091;-36
2022/08/12 12:54:05;;;;;;;3.35;1.85;;;34.40;26.90;;;;;;5009438;28;20079;-36
2022/08/12 12:56:30;;;;;;;3.97;2.10;;;34.40;26.70;;;;;;5008355;28;20052;-35
2022/08/12 12:58:56;;;;;;;3.72;2.25;;;34.50;26.00;;;;;;5008206;28;20039;-35
2022/08/12 13:01:25;;;;;;;3.55;2.05;;;34.50;25.90;;;;;;5006485;28;20046;-35
2022/08/12 13:03:55;;;;;;;3.17;2.00;;;34.50;26.00;;;;;;5009054;28;20403;-35
2022/08/12 13:06:28;;;;;;;2.70;2.00;;;34.50;26.20;;;;;;4991114;28;20038;-35
2022/08/12 13:09:00;;;;;;;3.25;1.95;;;34.70;26.40;;;;;;5008999;28;20052;-35
2022/08/12 13:11:28;;;;;;;4.47;1.80;;;35.00;26.10;;;;;;5006274;28;20446;-35
2022/08/12 13:13:55;;;;;;;4.88;2.10;;;35.10;25.60;;;;;;5009809;28;20054;-35
2022/08/12 13:16:22;;;;;;;3.20;1.80;;;35.30;25.40;;;;;;5003900;28;20062;-35
2022/08/12 13:18:50;;;;;;;4.13;1.90;;;35.30;25.40;;;;;;5009344;28;20541;-36
2022/08/12 13:21:17;;;;;;;5.07;1.90;;;35.30;25.20;;;;;;5008549;28;20046;-36
2022/08/12 13:23:47;;;;;;;2.42;1.58;;;35.50;25.50;;;;;;5009861;28;20045;-36
2022/08/12 13:26:16;;;;;;;3.37;1.80;;;35.60;25.10;;;;;;5007970;28;20069;-36
2022/08/12 13:28:49;;;;;;;6.50;1.73;;;35.70;24.90;;;;;;5009744;28;20058;-35
2022/08/12 13:31:15;;;;;;;5.80;1.67;;;35.80;24.70;;;;;;5008396;28;20037;-35
2022/08/12 13:33:41;;;;;;;3.47;1.42;;;35.90;24.20;;;;;;5010112;28;20038;-35
2022/08/12 13:36:09;;;;;;;2.90;1.50;;;36.10;24.00;;;;;;5005786;28;20034;-35
2022/08/12 13:38:45;;;;;;;2.50;1.45;;;36.20;23.60;;;;;;5007704;28;20159;-35
2022/08/12 13:41:32;;;;;;;2.35;1.40;;;36.40;23.60;;;;;;5007413;28;20029;-37
2022/08/12 13:44:05;;;;;;;4.43;1.80;;;36.90;23.40;;;;;;4999213;28;20070;-35
2022/08/12 13:46:30;;;;;;;2.20;1.60;;;37.60;22.90;;;;;;5006447;28;20036;-35
2022/08/12 13:48:56;;;;;;;7.45;1.40;;;38.00;22.50;;;;;;5008847;28;20112;-35
2022/08/12 13:51:23;;;;;;;8.40;1.58;;;38.30;22.30;;;;;;5008355;28;20099;-36
2022/08/12 13:53:49;;;;;;;3.00;1.60;;;38.70;22.00;;;;;;5007930;28;20045;-37
2022/08/12 13:56:16;;;;;;;5.32;1.88;;;39.10;21.50;;;;;;5007915;28;20488;-35
2022/08/12 13:58:48;;;;;;;5.53;1.55;;;39.30;21.40;;;;;;5008307;28;20067;-36
2022/08/12 14:01:16;;;;;;;2.17;1.70;;;39.60;20.90;;;;;;5006616;28;20049;-35
2022/08/12 14:03:41;;;;;;;2.17;1.70;;;39.80;20.80;;;;;;5008473;28;20033;-35
2022/08/12 14:06:07;;;;;;;3.95;1.30;;;40.20;20.30;;;;;;5007553;28;20111;-36
2022/08/12 14:08:33;;;;;;;1.83;1.70;;;40.30;20.10;;;;;;5006204;28;20038;-35
2022/08/12 14:10:59;;;;;;;4.50;2.03;;;40.40;19.90;;;;;;5008140;28;20049;-35
2022/08/12 14:13:29;;;;;;;5.20;1.80;;;40.40;19.80;;;;;;5007941;28;20415;-42
2022/08/12 14:16:01;;;;;;;7.18;2.15;;;40.40;19.80;;;;;;5009100;28;20084;-43
2022/08/12 14:18:32;;;;;;;2.17;1.95;;;40.60;20.00;;;;;;5008589;28;20100;-37
2022/08/12 14:21:03;;;;;;;3.05;1.67;;;40.90;19.50;;;;;;5008881;28;20038;-35
2022/08/12 14:23:33;;;;;;;;;;;41.20;18.90;;;;;;5009202;28;20041;-35
2022/08/12 14:26:00;;;;;;;3.00;1.75;;;41.40;18.50;;;;;;5007243;28;19921;-35
2022/08/12 14:28:30;;;;;;;2.45;1.70;;;41.50;18.80;;;;;;5008001;28;20120;-35
2022/08/12 14:31:01;;;;;;;1.95;1.40;;;41.70;18.70;;;;;;5009236;28;20037;-35
2022/08/12 14:33:40;;;;;;;3.97;1.90;;;41.90;18.60;;;;;;5008006;28;20049;-35
2022/08/12 14:36:08;;;;;;;2.75;1.38;;;42.00;18.60;;;;;;5004871;28;20042;-36
2022/08/12 14:38:39;;;;;;;5.05;1.50;;;42.20;18.50;;;;;;5010502;28;20128;-36
2022/08/12 14:41:11;;;;;;;4.85;1.90;;;42.30;18.30;;;;;;5008875;28;20042;-43
2022/08/12 14:43:37;;;;;;;5.53;1.90;;;42.50;18.00;;;;;;5010637;28;20030;-42
2022/08/12 14:46:04;;;;;;;4.20;2.20;;;42.60;17.80;;;;;;5010466;28;20046;-36
2022/08/12 14:48:30;;;;;;;3.08;2.30;;;42.60;17.80;;;;;;5012292;28;20104;-34